Satellite Precipitation Estimates (TXUS20 KWBC)
Issued by NWS

Home | Current Version | Previous Version | Text Only | Print | Product List | Glossary On
Versions: 1 2 3 4 5 6
000
SPTD31 TTPP 300320 RRA
SPECI
TTCP 300310Z 07005KT 5000 -TSRA FEW012CB SCT016 26/23 Q1015=



USA.gov is the U.S. government's official web portal to all federal, state and local government web resources and services.